sensor_id;sensor_type;location;lat;lon;timestamp;P1;durP1;ratioP1;P2;durP2;ratioP2
10554;SDS011;5326;51.522;7.388;2022-08-07T00:01:15;4.13;;;2.90;;
10554;SDS011;5326;51.522;7.388;2022-08-07T00:04:03;4.93;;;2.73;;
10554;SDS011;5326;51.522;7.388;2022-08-07T00:06:31;5.47;;;2.80;;
10554;SDS011;5326;51.522;7.388;2022-08-07T00:08:59;3.80;;;2.87;;
10554;SDS011;5326;51.522;7.388;2022-08-07T00:11:46;3.37;;;2.37;;
10554;SDS011;5326;51.522;7.388;2022-08-07T00:14:24;5.03;;;2.70;;
10554;SDS011;5326;51.522;7.388;2022-08-07T00:16:57;4.90;;;2.80;;
10554;SDS011;5326;51.522;7.388;2022-08-07T00:19:24;4.67;;;2.80;;
10554;SDS011;5326;51.522;7.388;2022-08-07T00:22:13;3.07;;;2.57;;
10554;SDS011;5326;51.522;7.388;2022-08-07T00:24:59;3.83;;;2.80;;
10554;SDS011;5326;51.522;7.388;2022-08-07T00:27:27;4.80;;;3.00;;
10554;SDS011;5326;51.522;7.388;2022-08-07T00:30:14;4.23;;;2.87;;
10554;SDS011;5326;51.522;7.388;2022-08-07T00:32:53;5.67;;;2.77;;
10554;SDS011;5326;51.522;7.388;2022-08-07T00:35:24;3.97;;;2.90;;
10554;SDS011;5326;51.522;7.388;2022-08-07T00:37:51;4.10;;;3.17;;
10554;SDS011;5326;51.522;7.388;2022-08-07T00:40:18;5.40;;;3.00;;
10554;SDS011;5326;51.522;7.388;2022-08-07T00:43:05;4.47;;;2.93;;
10554;SDS011;5326;51.522;7.388;2022-08-07T00:45:51;4.50;;;2.70;;
10554;SDS011;5326;51.522;7.388;2022-08-07T00:48:18;3.00;;;2.47;;
10554;SDS011;5326;51.522;7.388;2022-08-07T00:50:57;4.37;;;2.90;;
10554;SDS011;5326;51.522;7.388;2022-08-07T00:53:25;4.57;;;2.77;;
10554;SDS011;5326;51.522;7.388;2022-08-07T00:56:03;4.13;;;2.60;;
10554;SDS011;5326;51.522;7.388;2022-08-07T00:58:42;4.57;;;2.53;;
10554;SDS011;5326;51.522;7.388;2022-08-07T01:01:14;7.50;;;2.77;;
10554;SDS011;5326;51.522;7.388;2022-08-07T01:03:41;5.93;;;2.67;;
10554;SDS011;5326;51.522;7.388;2022-08-07T01:06:25;2.80;;;2.30;;
10554;SDS011;5326;51.522;7.388;2022-08-07T01:08:55;3.37;;;2.37;;
10554;SDS011;5326;51.522;7.388;2022-08-07T01:11:26;2.50;;;2.30;;
10554;SDS011;5326;51.522;7.388;2022-08-07T01:14:13;2.60;;;2.40;;
10554;SDS011;5326;51.522;7.388;2022-08-07T01:16:41;3.50;;;2.50;;
10554;SDS011;5326;51.522;7.388;2022-08-07T01:19:13;6.43;;;2.30;;
10554;SDS011;5326;51.522;7.388;2022-08-07T01:21:45;2.40;;;1.97;;
10554;SDS011;5326;51.522;7.388;2022-08-07T01:24:12;4.13;;;2.53;;
10554;SDS011;5326;51.522;7.388;2022-08-07T01:26:43;4.50;;;2.20;;
10554;SDS011;5326;51.522;7.388;2022-08-07T01:29:18;3.97;;;2.30;;
10554;SDS011;5326;51.522;7.388;2022-08-07T01:31:47;3.57;;;2.53;;
10554;SDS011;5326;51.522;7.388;2022-08-07T01:34:14;3.90;;;2.50;;
10554;SDS011;5326;51.522;7.388;2022-08-07T01:36:40;4.10;;;2.30;;
10554;SDS011;5326;51.522;7.388;2022-08-07T01:39:09;5.57;;;2.60;;
10554;SDS011;5326;51.522;7.388;2022-08-07T01:41:36;3.50;;;2.50;;
10554;SDS011;5326;51.522;7.388;2022-08-07T01:44:20;5.77;;;2.33;;
10554;SDS011;5326;51.522;7.388;2022-08-07T01:46:48;3.70;;;2.40;;
10554;SDS011;5326;51.522;7.388;2022-08-07T01:49:15;2.77;;;2.20;;
10554;SDS011;5326;51.522;7.388;2022-08-07T01:51:46;2.77;;;2.33;;
10554;SDS011;5326;51.522;7.388;2022-08-07T01:54:30;3.93;;;2.27;;
10554;SDS011;5326;51.522;7.388;2022-08-07T01:57:04;2.43;;;2.10;;
10554;SDS011;5326;51.522;7.388;2022-08-07T01:59:47;3.57;;;2.20;;
10554;SDS011;5326;51.522;7.388;2022-08-07T02:02:21;3.50;;;2.00;;
10554;SDS011;5326;51.522;7.388;2022-08-07T02:05:12;3.87;;;2.43;;
10554;SDS011;5326;51.522;7.388;2022-08-07T02:08:05;3.97;;;2.20;;
10554;SDS011;5326;51.522;7.388;2022-08-07T02:10:39;3.67;;;2.40;;
10554;SDS011;5326;51.522;7.388;2022-08-07T02:13:07;9.03;;;2.40;;
10554;SDS011;5326;51.522;7.388;2022-08-07T02:15:35;4.03;;;2.03;;
10554;SDS011;5326;51.522;7.388;2022-08-07T02:18:02;2.63;;;2.40;;
10554;SDS011;5326;51.522;7.388;2022-08-07T02:20:31;4.17;;;2.53;;
10554;SDS011;5326;51.522;7.388;2022-08-07T02:23:01;4.93;;;2.43;;
10554;SDS011;5326;51.522;7.388;2022-08-07T02:25:30;2.30;;;2.00;;
10554;SDS011;5326;51.522;7.388;2022-08-07T02:28:18;2.87;;;2.17;;
10554;SDS011;5326;51.522;7.388;2022-08-07T02:30:50;5.17;;;2.60;;
10554;SDS011;5326;51.522;7.388;2022-08-07T02:33:17;3.43;;;2.47;;
10554;SDS011;5326;51.522;7.388;2022-08-07T02:35:45;2.70;;;2.30;;
10554;SDS011;5326;51.522;7.388;2022-08-07T02:38:34;3.70;;;2.60;;
10554;SDS011;5326;51.522;7.388;2022-08-07T02:41:03;4.33;;;2.67;;
10554;SDS011;5326;51.522;7.388;2022-08-07T02:43:34;4.70;;;2.50;;
10554;SDS011;5326;51.522;7.388;2022-08-07T02:46:04;3.43;;;2.60;;
10554;SDS011;5326;51.522;7.388;2022-08-07T02:48:32;3.87;;;2.60;;
10554;SDS011;5326;51.522;7.388;2022-08-07T02:51:01;4.87;;;2.40;;
10554;SDS011;5326;51.522;7.388;2022-08-07T02:53:32;3.37;;;2.47;;
10554;SDS011;5326;51.522;7.388;2022-08-07T02:56:04;5.00;;;2.60;;
10554;SDS011;5326;51.522;7.388;2022-08-07T02:58:42;3.17;;;2.13;;
10554;SDS011;5326;51.522;7.388;2022-08-07T03:01:13;4.30;;;2.77;;
10554;SDS011;5326;51.522;7.388;2022-08-07T03:03:44;3.47;;;2.70;;
10554;SDS011;5326;51.522;7.388;2022-08-07T03:06:16;3.67;;;2.20;;
10554;SDS011;5326;51.522;7.388;2022-08-07T03:08:59;4.37;;;2.67;;
10554;SDS011;5326;51.522;7.388;2022-08-07T03:11:27;3.80;;;2.60;;
10554;SDS011;5326;51.522;7.388;2022-08-07T03:13:58;6.43;;;2.63;;
10554;SDS011;5326;51.522;7.388;2022-08-07T03:16:27;3.53;;;2.20;;
10554;SDS011;5326;51.522;7.388;2022-08-07T03:18:56;4.43;;;2.53;;
10554;SDS011;5326;51.522;7.388;2022-08-07T03:21:23;2.30;;;2.10;;
10554;SDS011;5326;51.522;7.388;2022-08-07T03:23:52;3.60;;;2.57;;
10554;SDS011;5326;51.522;7.388;2022-08-07T03:26:40;5.10;;;2.00;;
10554;SDS011;5326;51.522;7.388;2022-08-07T03:29:16;5.17;;;2.50;;
10554;SDS011;5326;51.522;7.388;2022-08-07T03:31:44;4.33;;;2.50;;
10554;SDS011;5326;51.522;7.388;2022-08-07T03:34:15;4.20;;;2.60;;
10554;SDS011;5326;51.522;7.388;2022-08-07T03:36:47;2.20;;;2.00;;
10554;SDS011;5326;51.522;7.388;2022-08-07T03:39:13;2.53;;;2.30;;
10554;SDS011;5326;51.522;7.388;2022-08-07T03:41:42;3.13;;;2.30;;
10554;SDS011;5326;51.522;7.388;2022-08-07T03:44:16;4.07;;;2.60;;
10554;SDS011;5326;51.522;7.388;2022-08-07T03:46:59;3.83;;;2.10;;
10554;SDS011;5326;51.522;7.388;2022-08-07T03:49:40;2.63;;;1.90;;
10554;SDS011;5326;51.522;7.388;2022-08-07T03:52:22;3.23;;;2.30;;
10554;SDS011;5326;51.522;7.388;2022-08-07T03:54:55;4.47;;;2.50;;
10554;SDS011;5326;51.522;7.388;2022-08-07T03:57:32;3.10;;;2.30;;
10554;SDS011;5326;51.522;7.388;2022-08-07T04:00:19;3.23;;;2.53;;
10554;SDS011;5326;51.522;7.388;2022-08-07T04:02:58;3.97;;;2.53;;
10554;SDS011;5326;51.522;7.388;2022-08-07T04:05:29;5.47;;;2.30;;
10554;SDS011;5326;51.522;7.388;2022-08-07T04:08:11;2.73;;;2.20;;
10554;SDS011;5326;51.522;7.388;2022-08-07T04:10:41;3.37;;;2.30;;
10554;SDS011;5326;51.522;7.388;2022-08-07T04:13:20;3.87;;;2.43;;
10554;SDS011;5326;51.522;7.388;2022-08-07T04:15:52;4.43;;;2.10;;
10554;SDS011;5326;51.522;7.388;2022-08-07T04:18:19;2.83;;;2.00;;
10554;SDS011;5326;51.522;7.388;2022-08-07T04:21:06;5.53;;;2.40;;
10554;SDS011;5326;51.522;7.388;2022-08-07T04:23:32;4.23;;;2.90;;
10554;SDS011;5326;51.522;7.388;2022-08-07T04:26:19;3.83;;;2.80;;
10554;SDS011;5326;51.522;7.388;2022-08-07T04:28:47;2.37;;;1.97;;
10554;SDS011;5326;51.522;7.388;2022-08-07T04:31:15;4.87;;;2.30;;
10554;SDS011;5326;51.522;7.388;2022-08-07T04:33:45;3.07;;;2.20;;
10554;SDS011;5326;51.522;7.388;2022-08-07T04:36:20;2.90;;;2.20;;
10554;SDS011;5326;51.522;7.388;2022-08-07T04:38:51;3.17;;;2.33;;
10554;SDS011;5326;51.522;7.388;2022-08-07T04:41:18;3.67;;;2.20;;
10554;SDS011;5326;51.522;7.388;2022-08-07T04:43:44;3.27;;;2.40;;
10554;SDS011;5326;51.522;7.388;2022-08-07T04:57:21;3.90;;;2.53;;
10554;SDS011;5326;51.522;7.388;2022-08-07T05:01:05;3.57;;;2.37;;
10554;SDS011;5326;51.522;7.388;2022-08-07T05:06:29;3.70;;;2.37;;
10554;SDS011;5326;51.522;7.388;2022-08-07T05:09:22;7.77;;;2.43;;
10554;SDS011;5326;51.522;7.388;2022-08-07T05:12:14;3.93;;;2.50;;
10554;SDS011;5326;51.522;7.388;2022-08-07T05:14:52;2.87;;;2.30;;
10554;SDS011;5326;51.522;7.388;2022-08-07T05:17:30;3.57;;;2.60;;
10554;SDS011;5326;51.522;7.388;2022-08-07T05:20:19;3.47;;;2.33;;
10554;SDS011;5326;51.522;7.388;2022-08-07T05:22:53;4.50;;;2.33;;
10554;SDS011;5326;51.522;7.388;2022-08-07T05:25:23;3.73;;;2.87;;
10554;SDS011;5326;51.522;7.388;2022-08-07T05:28:03;4.80;;;2.47;;
10554;SDS011;5326;51.522;7.388;2022-08-07T05:30:48;3.00;;;2.23;;
10554;SDS011;5326;51.522;7.388;2022-08-07T05:33:17;4.03;;;2.50;;
10554;SDS011;5326;51.522;7.388;2022-08-07T05:35:46;2.53;;;2.10;;
10554;SDS011;5326;51.522;7.388;2022-08-07T05:38:14;2.30;;;2.00;;
10554;SDS011;5326;51.522;7.388;2022-08-07T05:41:02;2.57;;;2.20;;
10554;SDS011;5326;51.522;7.388;2022-08-07T05:43:41;2.90;;;2.03;;
10554;SDS011;5326;51.522;7.388;2022-08-07T05:46:28;2.93;;;2.60;;
10554;SDS011;5326;51.522;7.388;2022-08-07T05:48:56;3.37;;;2.17;;
10554;SDS011;5326;51.522;7.388;2022-08-07T05:51:24;4.30;;;2.57;;
10554;SDS011;5326;51.522;7.388;2022-08-07T05:53:57;4.80;;;2.30;;
10554;SDS011;5326;51.522;7.388;2022-08-07T05:56:40;3.43;;;2.27;;
10554;SDS011;5326;51.522;7.388;2022-08-07T05:59:12;5.30;;;2.40;;
10554;SDS011;5326;51.522;7.388;2022-08-07T06:01:40;3.00;;;2.30;;
10554;SDS011;5326;51.522;7.388;2022-08-07T06:04:08;4.07;;;3.13;;
10554;SDS011;5326;51.522;7.388;2022-08-07T06:06:35;3.27;;;2.40;;
10554;SDS011;5326;51.522;7.388;2022-08-07T06:09:03;2.80;;;2.37;;
10554;SDS011;5326;51.522;7.388;2022-08-07T06:11:31;4.50;;;2.33;;
10554;SDS011;5326;51.522;7.388;2022-08-07T06:13:59;4.47;;;2.47;;
10554;SDS011;5326;51.522;7.388;2022-08-07T06:16:39;3.43;;;2.33;;
10554;SDS011;5326;51.522;7.388;2022-08-07T06:19:06;4.47;;;2.40;;
10554;SDS011;5326;51.522;7.388;2022-08-07T06:21:43;3.00;;;2.10;;
10554;SDS011;5326;51.522;7.388;2022-08-07T06:24:31;3.37;;;2.30;;
10554;SDS011;5326;51.522;7.388;2022-08-07T06:27:21;5.90;;;2.33;;
10554;SDS011;5326;51.522;7.388;2022-08-07T06:30:08;3.60;;;2.27;;
10554;SDS011;5326;51.522;7.388;2022-08-07T06:32:55;3.80;;;2.33;;
10554;SDS011;5326;51.522;7.388;2022-08-07T06:35:22;3.13;;;2.00;;
10554;SDS011;5326;51.522;7.388;2022-08-07T06:37:55;3.80;;;2.03;;
10554;SDS011;5326;51.522;7.388;2022-08-07T06:40:26;4.40;;;2.10;;
10554;SDS011;5326;51.522;7.388;2022-08-07T06:43:00;4.07;;;2.40;;
10554;SDS011;5326;51.522;7.388;2022-08-07T06:45:32;2.33;;;2.00;;
10554;SDS011;5326;51.522;7.388;2022-08-07T06:48:01;4.77;;;2.30;;
10554;SDS011;5326;51.522;7.388;2022-08-07T06:50:28;5.30;;;2.30;;
10554;SDS011;5326;51.522;7.388;2022-08-07T06:52:55;3.63;;;2.20;;
10554;SDS011;5326;51.522;7.388;2022-08-07T06:55:25;2.17;;;1.97;;
10554;SDS011;5326;51.522;7.388;2022-08-07T06:58:14;9.10;;;6.77;;
10554;SDS011;5326;51.522;7.388;2022-08-07T07:00:41;3.50;;;3.13;;
10554;SDS011;5326;51.522;7.388;2022-08-07T07:03:09;2.70;;;2.10;;
10554;SDS011;5326;51.522;7.388;2022-08-07T07:05:39;2.60;;;2.17;;
10554;SDS011;5326;51.522;7.388;2022-08-07T07:08:27;2.33;;;2.10;;
10554;SDS011;5326;51.522;7.388;2022-08-07T07:10:56;4.53;;;2.00;;
10554;SDS011;5326;51.522;7.388;2022-08-07T07:13:33;3.27;;;1.63;;
10554;SDS011;5326;51.522;7.388;2022-08-07T07:16:22;2.80;;;2.00;;
10554;SDS011;5326;51.522;7.388;2022-08-07T07:18:56;3.23;;;1.80;;
10554;SDS011;5326;51.522;7.388;2022-08-07T07:21:37;6.57;;;1.77;;
10554;SDS011;5326;51.522;7.388;2022-08-07T07:24:26;2.90;;;1.43;;
10554;SDS011;5326;51.522;7.388;2022-08-07T07:26:53;2.00;;;1.20;;
10554;SDS011;5326;51.522;7.388;2022-08-07T07:29:23;2.03;;;1.43;;
10554;SDS011;5326;51.522;7.388;2022-08-07T07:32:12;2.37;;;1.30;;
10554;SDS011;5326;51.522;7.388;2022-08-07T07:34:41;1.50;;;1.40;;
10554;SDS011;5326;51.522;7.388;2022-08-07T07:37:10;1.93;;;1.33;;
10554;SDS011;5326;51.522;7.388;2022-08-07T07:39:59;3.27;;;1.40;;
10554;SDS011;5326;51.522;7.388;2022-08-07T07:42:39;4.97;;;1.70;;
10554;SDS011;5326;51.522;7.388;2022-08-07T07:45:07;3.50;;;1.30;;
10554;SDS011;5326;51.522;7.388;2022-08-07T07:47:41;4.83;;;1.50;;
10554;SDS011;5326;51.522;7.388;2022-08-07T07:50:19;2.00;;;1.60;;
10554;SDS011;5326;51.522;7.388;2022-08-07T07:53:07;2.30;;;1.50;;
10554;SDS011;5326;51.522;7.388;2022-08-07T07:55:49;2.90;;;1.50;;
10554;SDS011;5326;51.522;7.388;2022-08-07T07:58:30;1.67;;;1.30;;
10554;SDS011;5326;51.522;7.388;2022-08-07T08:01:06;1.87;;;1.70;;
10554;SDS011;5326;51.522;7.388;2022-08-07T08:03:56;2.10;;;1.20;;
10554;SDS011;5326;51.522;7.388;2022-08-07T08:06:36;2.93;;;1.33;;
10554;SDS011;5326;51.522;7.388;2022-08-07T08:09:04;2.60;;;1.20;;
10554;SDS011;5326;51.522;7.388;2022-08-07T08:11:34;8.10;;;1.40;;
10554;SDS011;5326;51.522;7.388;2022-08-07T08:14:21;2.67;;;1.40;;
10554;SDS011;5326;51.522;7.388;2022-08-07T08:16:51;1.67;;;1.27;;
10554;SDS011;5326;51.522;7.388;2022-08-07T08:19:22;2.20;;;1.30;;
10554;SDS011;5326;51.522;7.388;2022-08-07T08:22:10;4.10;;;1.63;;
10554;SDS011;5326;51.522;7.388;2022-08-07T08:24:58;2.67;;;1.40;;
10554;SDS011;5326;51.522;7.388;2022-08-07T08:28:05;2.50;;;1.20;;
10554;SDS011;5326;51.522;7.388;2022-08-07T08:30:35;2.17;;;1.30;;
10554;SDS011;5326;51.522;7.388;2022-08-07T08:33:16;2.20;;;1.10;;
10554;SDS011;5326;51.522;7.388;2022-08-07T08:35:47;5.00;;;1.30;;
10554;SDS011;5326;51.522;7.388;2022-08-07T08:38:17;2.73;;;1.40;;
10554;SDS011;5326;51.522;7.388;2022-08-07T08:40:46;1.90;;;1.23;;
10554;SDS011;5326;51.522;7.388;2022-08-07T08:43:22;3.77;;;1.30;;
10554;SDS011;5326;51.522;7.388;2022-08-07T08:46:23;1.93;;;1.00;;
10554;SDS011;5326;51.522;7.388;2022-08-07T08:52:28;1.23;;;1.00;;
10554;SDS011;5326;51.522;7.388;2022-08-07T08:55:12;1.73;;;0.80;;
10554;SDS011;5326;51.522;7.388;2022-08-07T08:58:11;2.20;;;0.80;;
10554;SDS011;5326;51.522;7.388;2022-08-07T09:00:57;1.23;;;0.77;;
10554;SDS011;5326;51.522;7.388;2022-08-07T09:20:45;1.57;;;0.73;;
10554;SDS011;5326;51.522;7.388;2022-08-07T09:38:53;0.80;;;0.80;;
10554;SDS011;5326;51.522;7.388;2022-08-07T09:42:03;0.83;;;0.70;;
10554;SDS011;5326;51.522;7.388;2022-08-07T09:53:17;0.70;;;0.70;;
10554;SDS011;5326;51.522;7.388;2022-08-07T10:16:46;1.23;;;0.70;;
10554;SDS011;5326;51.522;7.388;2022-08-07T10:22:25;0.87;;;0.70;;
10554;SDS011;5326;51.522;7.388;2022-08-07T10:25:46;1.27;;;0.80;;
10554;SDS011;5326;51.522;7.388;2022-08-07T10:40:44;1.30;;;0.77;;
10554;SDS011;5326;51.522;7.388;2022-08-07T10:43:23;1.70;;;0.90;;
10554;SDS011;5326;51.522;7.388;2022-08-07T10:46:00;0.70;;;0.70;;
10554;SDS011;5326;51.522;7.388;2022-08-07T10:51:17;1.10;;;0.73;;
10554;SDS011;5326;51.522;7.388;2022-08-07T10:54:17;0.67;;;0.60;;
10554;SDS011;5326;51.522;7.388;2022-08-07T11:00:26;1.43;;;1.27;;
10554;SDS011;5326;51.522;7.388;2022-08-07T11:05:18;1.00;;;0.80;;
10554;SDS011;5326;51.522;7.388;2022-08-07T11:14:21;1.50;;;0.87;;
10554;SDS011;5326;51.522;7.388;2022-08-07T11:17:16;5.40;;;0.90;;
10554;SDS011;5326;51.522;7.388;2022-08-07T11:20:07;0.70;;;0.67;;
10554;SDS011;5326;51.522;7.388;2022-08-07T11:22:41;2.87;;;0.80;;
10554;SDS011;5326;51.522;7.388;2022-08-07T11:28:16;1.33;;;0.77;;
10554;SDS011;5326;51.522;7.388;2022-08-07T11:36:55;1.10;;;1.00;;
10554;SDS011;5326;51.522;7.388;2022-08-07T11:42:17;0.87;;;0.63;;
10554;SDS011;5326;51.522;7.388;2022-08-07T11:45:05;1.73;;;0.83;;
10554;SDS011;5326;51.522;7.388;2022-08-07T11:47:53;1.30;;;0.70;;
10554;SDS011;5326;51.522;7.388;2022-08-07T11:51:12;7.40;;;6.67;;
10554;SDS011;5326;51.522;7.388;2022-08-07T11:59:26;1.80;;;1.00;;
10554;SDS011;5326;51.522;7.388;2022-08-07T12:02:56;1.80;;;1.10;;
10554;SDS011;5326;51.522;7.388;2022-08-07T12:11:14;1.53;;;1.00;;
10554;SDS011;5326;51.522;7.388;2022-08-07T12:13:49;1.70;;;1.00;;
10554;SDS011;5326;51.522;7.388;2022-08-07T12:16:20;1.27;;;0.70;;
10554;SDS011;5326;51.522;7.388;2022-08-07T12:19:03;1.17;;;0.90;;
10554;SDS011;5326;51.522;7.388;2022-08-07T12:27:34;2.27;;;1.80;;
10554;SDS011;5326;51.522;7.388;2022-08-07T12:30:26;2.00;;;1.00;;
10554;SDS011;5326;51.522;7.388;2022-08-07T12:33:02;1.10;;;0.90;;
10554;SDS011;5326;51.522;7.388;2022-08-07T12:35:48;1.60;;;1.20;;
10554;SDS011;5326;51.522;7.388;2022-08-07T12:38:23;1.07;;;0.80;;
10554;SDS011;5326;51.522;7.388;2022-08-07T12:41:10;0.93;;;0.80;;
10554;SDS011;5326;51.522;7.388;2022-08-07T12:43:39;2.50;;;2.10;;
10554;SDS011;5326;51.522;7.388;2022-08-07T12:49:38;1.63;;;1.00;;
10554;SDS011;5326;51.522;7.388;2022-08-07T12:52:26;1.33;;;1.10;;
10554;SDS011;5326;51.522;7.388;2022-08-07T12:55:01;2.07;;;1.07;;
10554;SDS011;5326;51.522;7.388;2022-08-07T12:57:43;1.30;;;1.20;;
10554;SDS011;5326;51.522;7.388;2022-08-07T13:00:30;2.00;;;0.90;;
10554;SDS011;5326;51.522;7.388;2022-08-07T13:21:26;1.73;;;0.87;;
10554;SDS011;5326;51.522;7.388;2022-08-07T13:24:21;1.05;;;0.82;;
10554;SDS011;5326;51.522;7.388;2022-08-07T13:26:56;1.13;;;0.80;;
10554;SDS011;5326;51.522;7.388;2022-08-07T13:36:09;1.15;;;0.93;;
10554;SDS011;5326;51.522;7.388;2022-08-07T13:38:47;2.38;;;0.70;;
10554;SDS011;5326;51.522;7.388;2022-08-07T13:43:54;2.70;;;0.98;;
10554;SDS011;5326;51.522;7.388;2022-08-07T13:46:21;1.23;;;0.82;;
10554;SDS011;5326;51.522;7.388;2022-08-07T13:48:59;1.95;;;0.90;;
10554;SDS011;5326;51.522;7.388;2022-08-07T13:51:27;0.70;;;0.70;;
10554;SDS011;5326;51.522;7.388;2022-08-07T13:54:14;1.73;;;1.10;;
10554;SDS011;5326;51.522;7.388;2022-08-07T13:56:51;1.67;;;1.20;;
10554;SDS011;5326;51.522;7.388;2022-08-07T13:59:25;1.15;;;0.98;;
10554;SDS011;5326;51.522;7.388;2022-08-07T14:02:00;0.80;;;0.80;;
10554;SDS011;5326;51.522;7.388;2022-08-07T14:04:53;1.40;;;1.10;;
10554;SDS011;5326;51.522;7.388;2022-08-07T14:07:21;2.17;;;0.95;;
10554;SDS011;5326;51.522;7.388;2022-08-07T14:09:54;1.10;;;0.98;;
10554;SDS011;5326;51.522;7.388;2022-08-07T14:15:39;0.70;;;0.70;;
10554;SDS011;5326;51.522;7.388;2022-08-07T14:21:56;4.00;;;0.85;;
10554;SDS011;5326;51.522;7.388;2022-08-07T14:24:24;2.63;;;0.70;;
10554;SDS011;5326;51.522;7.388;2022-08-07T14:26:56;2.55;;;0.88;;
10554;SDS011;5326;51.522;7.388;2022-08-07T14:29:30;0.85;;;0.70;;
10554;SDS011;5326;51.522;7.388;2022-08-07T14:32:20;2.35;;;0.73;;
10554;SDS011;5326;51.522;7.388;2022-08-07T14:34:50;1.50;;;1.05;;
10554;SDS011;5326;51.522;7.388;2022-08-07T14:37:17;3.08;;;0.95;;
10554;SDS011;5326;51.522;7.388;2022-08-07T14:40:02;1.65;;;0.75;;
10554;SDS011;5326;51.522;7.388;2022-08-07T14:42:53;1.17;;;0.85;;
10554;SDS011;5326;51.522;7.388;2022-08-07T14:48:20;0.85;;;0.70;;
10554;SDS011;5326;51.522;7.388;2022-08-07T14:50:53;1.25;;;0.93;;
10554;SDS011;5326;51.522;7.388;2022-08-07T14:53:22;1.55;;;0.90;;
10554;SDS011;5326;51.522;7.388;2022-08-07T14:56:10;1.15;;;0.98;;
10554;SDS011;5326;51.522;7.388;2022-08-07T14:58:39;0.80;;;0.80;;
10554;SDS011;5326;51.522;7.388;2022-08-07T15:01:09;1.08;;;0.90;;
10554;SDS011;5326;51.522;7.388;2022-08-07T15:03:48;1.77;;;1.02;;
10554;SDS011;5326;51.522;7.388;2022-08-07T15:06:22;1.85;;;0.70;;
10554;SDS011;5326;51.522;7.388;2022-08-07T15:08:50;0.85;;;0.52;;
10554;SDS011;5326;51.522;7.388;2022-08-07T15:11:57;1.25;;;0.85;;
10554;SDS011;5326;51.522;7.388;2022-08-07T15:14:31;0.98;;;0.82;;
10554;SDS011;5326;51.522;7.388;2022-08-07T15:17:19;1.50;;;1.20;;
10554;SDS011;5326;51.522;7.388;2022-08-07T15:19:53;2.15;;;1.50;;
10554;SDS011;5326;51.522;7.388;2022-08-07T15:22:46;1.25;;;1.15;;
10554;SDS011;5326;51.522;7.388;2022-08-07T15:25:36;2.30;;;2.00;;
10554;SDS011;5326;51.522;7.388;2022-08-07T15:28:07;2.30;;;1.50;;
10554;SDS011;5326;51.522;7.388;2022-08-07T15:30:56;3.15;;;1.30;;
10554;SDS011;5326;51.522;7.388;2022-08-07T15:33:32;2.28;;;1.35;;
10554;SDS011;5326;51.522;7.388;2022-08-07T15:36:02;1.35;;;1.15;;
10554;SDS011;5326;51.522;7.388;2022-08-07T15:38:32;3.55;;;1.27;;
10554;SDS011;5326;51.522;7.388;2022-08-07T15:41:23;1.65;;;1.42;;
10554;SDS011;5326;51.522;7.388;2022-08-07T15:44:12;0.98;;;0.85;;
10554;SDS011;5326;51.522;7.388;2022-08-07T15:46:40;1.20;;;1.10;;
10554;SDS011;5326;51.522;7.388;2022-08-07T15:49:17;1.42;;;0.93;;
10554;SDS011;5326;51.522;7.388;2022-08-07T15:52:07;2.05;;;1.30;;
10554;SDS011;5326;51.522;7.388;2022-08-07T15:54:41;1.83;;;1.10;;
10554;SDS011;5326;51.522;7.388;2022-08-07T15:57:13;3.55;;;1.60;;
10554;SDS011;5326;51.522;7.388;2022-08-07T16:00:04;5.32;;;1.90;;
10554;SDS011;5326;51.522;7.388;2022-08-07T16:02:42;7.32;;;2.20;;
10554;SDS011;5326;51.522;7.388;2022-08-07T16:05:12;5.78;;;3.17;;
10554;SDS011;5326;51.522;7.388;2022-08-07T16:08:03;4.03;;;2.08;;
10554;SDS011;5326;51.522;7.388;2022-08-07T16:11:02;7.63;;;1.95;;
10554;SDS011;5326;51.522;7.388;2022-08-07T16:16:46;4.97;;;1.67;;
10554;SDS011;5326;51.522;7.388;2022-08-07T16:19:29;2.13;;;1.27;;
10554;SDS011;5326;51.522;7.388;2022-08-07T16:43:10;2.75;;;1.25;;
10554;SDS011;5326;51.522;7.388;2022-08-07T16:54:39;1.75;;;1.20;;
10554;SDS011;5326;51.522;7.388;2022-08-07T17:00:17;2.65;;;1.33;;
10554;SDS011;5326;51.522;7.388;2022-08-07T17:08:47;2.33;;;1.23;;
10554;SDS011;5326;51.522;7.388;2022-08-07T17:11:47;1.90;;;1.35;;
10554;SDS011;5326;51.522;7.388;2022-08-07T17:17:37;2.50;;;1.25;;
10554;SDS011;5326;51.522;7.388;2022-08-07T17:20:55;3.05;;;0.88;;
10554;SDS011;5326;51.522;7.388;2022-08-07T17:32:14;0.90;;;0.80;;
10554;SDS011;5326;51.522;7.388;2022-08-07T17:35:03;2.15;;;1.00;;
10554;SDS011;5326;51.522;7.388;2022-08-07T17:38:07;1.00;;;0.85;;
10554;SDS011;5326;51.522;7.388;2022-08-07T17:41:12;3.70;;;0.90;;
10554;SDS011;5326;51.522;7.388;2022-08-07T17:44:23;1.67;;;1.00;;
10554;SDS011;5326;51.522;7.388;2022-08-07T17:47:08;0.90;;;0.90;;
10554;SDS011;5326;51.522;7.388;2022-08-07T17:50:05;0.90;;;0.90;;
10554;SDS011;5326;51.522;7.388;2022-08-07T17:52:56;11.15;;;3.63;;
10554;SDS011;5326;51.522;7.388;2022-08-07T17:55:31;2.58;;;1.40;;
10554;SDS011;5326;51.522;7.388;2022-08-07T17:58:30;1.75;;;1.05;;
10554;SDS011;5326;51.522;7.388;2022-08-07T18:01:13;2.40;;;1.13;;
10554;SDS011;5326;51.522;7.388;2022-08-07T18:06:51;0.80;;;0.80;;
10554;SDS011;5326;51.522;7.388;2022-08-07T18:09:45;2.40;;;1.08;;
10554;SDS011;5326;51.522;7.388;2022-08-07T18:15:25;1.50;;;1.10;;
10554;SDS011;5326;51.522;7.388;2022-08-07T18:18:08;4.00;;;3.05;;
10554;SDS011;5326;51.522;7.388;2022-08-07T18:27:13;1.70;;;1.40;;
10554;SDS011;5326;51.522;7.388;2022-08-07T18:40:29;5.45;;;2.13;;
10554;SDS011;5326;51.522;7.388;2022-08-07T18:58:30;2.30;;;1.60;;
10554;SDS011;5326;51.522;7.388;2022-08-07T19:10:23;1.63;;;1.43;;
10554;SDS011;5326;51.522;7.388;2022-08-07T19:13:02;7.60;;;4.17;;
10554;SDS011;5326;51.522;7.388;2022-08-07T19:24:20;2.47;;;1.80;;
10554;SDS011;5326;51.522;7.388;2022-08-07T19:26:57;2.20;;;1.87;;
10554;SDS011;5326;51.522;7.388;2022-08-07T19:29:46;3.03;;;2.23;;
10554;SDS011;5326;51.522;7.388;2022-08-07T19:32:37;3.87;;;2.43;;
10554;SDS011;5326;51.522;7.388;2022-08-07T19:35:13;3.17;;;1.90;;
10554;SDS011;5326;51.522;7.388;2022-08-07T19:37:49;2.47;;;1.67;;
10554;SDS011;5326;51.522;7.388;2022-08-07T19:40:24;1.50;;;1.40;;
10554;SDS011;5326;51.522;7.388;2022-08-07T19:42:58;1.60;;;1.50;;
10554;SDS011;5326;51.522;7.388;2022-08-07T19:45:27;2.70;;;1.90;;
10554;SDS011;5326;51.522;7.388;2022-08-07T19:48:17;2.30;;;2.00;;
10554;SDS011;5326;51.522;7.388;2022-08-07T19:50:50;4.63;;;2.43;;
10554;SDS011;5326;51.522;7.388;2022-08-07T19:53:19;2.17;;;1.70;;
10554;SDS011;5326;51.522;7.388;2022-08-07T19:56:07;2.47;;;2.10;;
10554;SDS011;5326;51.522;7.388;2022-08-07T19:58:55;3.00;;;2.30;;
10554;SDS011;5326;51.522;7.388;2022-08-07T20:01:22;5.50;;;2.57;;
10554;SDS011;5326;51.522;7.388;2022-08-07T20:04:11;3.43;;;2.50;;
10554;SDS011;5326;51.522;7.388;2022-08-07T20:06:57;3.63;;;2.53;;
10554;SDS011;5326;51.522;7.388;2022-08-07T20:09:23;3.47;;;3.07;;
10554;SDS011;5326;51.522;7.388;2022-08-07T20:12:11;5.47;;;4.90;;
10554;SDS011;5326;51.522;7.388;2022-08-07T20:15:00;5.53;;;3.97;;
10554;SDS011;5326;51.522;7.388;2022-08-07T20:17:40;4.70;;;4.23;;
10554;SDS011;5326;51.522;7.388;2022-08-07T20:20:09;3.90;;;3.50;;
10554;SDS011;5326;51.522;7.388;2022-08-07T20:22:36;3.10;;;2.77;;
10554;SDS011;5326;51.522;7.388;2022-08-07T20:25:06;4.40;;;3.67;;
10554;SDS011;5326;51.522;7.388;2022-08-07T20:27:45;4.20;;;3.80;;
10554;SDS011;5326;51.522;7.388;2022-08-07T20:30:30;4.40;;;4.00;;
10554;SDS011;5326;51.522;7.388;2022-08-07T20:32:58;5.97;;;3.77;;
10554;SDS011;5326;51.522;7.388;2022-08-07T20:35:33;6.50;;;4.03;;
10554;SDS011;5326;51.522;7.388;2022-08-07T20:38:20;3.90;;;3.60;;
10554;SDS011;5326;51.522;7.388;2022-08-07T20:40:49;3.53;;;2.87;;
10554;SDS011;5326;51.522;7.388;2022-08-07T20:43:18;4.33;;;3.07;;
10554;SDS011;5326;51.522;7.388;2022-08-07T20:45:52;2.87;;;2.63;;
10554;SDS011;5326;51.522;7.388;2022-08-07T20:48:40;4.20;;;3.20;;
10554;SDS011;5326;51.522;7.388;2022-08-07T20:51:29;4.33;;;3.13;;
10554;SDS011;5326;51.522;7.388;2022-08-07T20:54:01;3.57;;;3.13;;
10554;SDS011;5326;51.522;7.388;2022-08-07T20:56:37;3.70;;;2.67;;